Time;durP1;ratioP1;P1;durP2;ratioP2;P2;SDS_P1;SDS_P2;PMS_P1;PMS_P2;Temp;Humidity;BMP_temperature;BMP_pressure;BME280_temperature;BME280_humidity;BME280_pressure;Samples;Min_cycle;Max_cycle;Signal;HPM_P1;HPM_P2
2024/01/29 00:01:49;;;;;;;3.72;1.70;;;;;;;32.79;29.66;100020.56;7393320;19;20014;-51
2024/01/29 00:04:15;;;;;;;4.45;1.67;;;;;;;32.74;29.91;100015.94;7396400;19;20035;-51
2024/01/29 00:06:41;;;;;;;6.43;2.10;;;;;;;32.77;29.58;100008.91;7396457;19;20014;-51
2024/01/29 00:09:08;;;;;;;5.75;2.53;;;;;;;32.89;29.75;100009.66;7394743;19;20010;-51
2024/01/29 00:11:34;;;;;;;8.77;1.92;;;;;;;32.89;29.87;99995.22;7394128;19;20040;-51
2024/01/29 00:14:00;;;;;;;16.58;1.40;;;;;;;33.02;29.57;99998.88;7392120;19;20653;-51
2024/01/29 00:16:26;;;;;;;2.30;1.48;;;;;;;32.91;29.49;100000.38;7390251;19;20011;-51
2024/01/29 00:18:52;;;;;;;8.90;2.28;;;;;;;32.34;29.91;99996.09;7392944;19;20074;-51
2024/01/29 00:21:19;;;;;;;7.20;1.77;;;;;;;32.27;30.28;100002.84;7394364;19;20025;-51
2024/01/29 00:23:45;;;;;;;6.75;1.92;;;;;;;32.40;30.05;99996.47;7391778;19;20479;-51
2024/01/29 00:26:11;;;;;;;9.05;2.17;;;;;;;32.38;29.99;100002.09;7394588;19;20066;-51
2024/01/29 00:28:37;;;;;;;5.22;1.90;;;;;;;32.26;29.85;100004.25;7394649;19;20078;-51
2024/01/29 00:31:03;;;;;;;4.15;1.60;;;;;;;32.48;29.79;100005.66;7395428;19;20014;-51
2024/01/29 00:33:29;;;;;;;7.90;1.85;;;;;;;32.26;30.11;100015.78;7398033;19;20007;-51
2024/01/29 00:35:55;;;;;;;13.10;1.67;;;;;;;32.37;29.82;100023.69;7392862;19;20103;-51
2024/01/29 00:38:22;;;;;;;4.70;1.38;;;;;;;32.29;29.55;100023.19;7394309;19;20014;-51
2024/01/29 00:40:48;;;;;;;7.55;2.03;;;;;;;32.51;29.70;100027.47;7394893;19;20018;-51
2024/01/29 00:43:14;;;;;;;3.50;1.52;;;;;;;32.16;30.07;100020.91;7395193;19;20007;-51
2024/01/29 00:45:40;;;;;;;5.45;2.83;;;;;;;31.79;30.36;100019.91;7393228;19;20031;-51
2024/01/29 00:48:06;;;;;;;5.90;1.95;;;;;;;31.82;30.47;100027.28;7393897;19;20006;-51
2024/01/29 00:50:32;;;;;;;2.40;2.10;;;;;;;31.84;30.32;100027.41;7393068;19;20468;-51
2024/01/29 00:52:58;;;;;;;4.68;1.70;;;;;;;31.75;30.60;100029.00;7394506;19;20056;-51
2024/01/29 00:55:24;;;;;;;8.68;1.98;;;;;;;31.87;30.63;100040.56;7394454;19;20030;-51
2024/01/29 00:57:50;;;;;;;7.57;2.45;;;;;;;31.92;30.62;100039.47;7393877;19;20029;-51
2024/01/29 01:00:17;;;;;;;11.48;2.22;;;;;;;31.60;31.29;100035.22;7394172;19;20031;-51
2024/01/29 01:02:43;;;;;;;3.80;1.42;;;;;;;31.62;31.21;100032.47;7394787;19;20019;-51
2024/01/29 01:05:09;;;;;;;16.80;2.72;;;;;;;31.62;31.36;100020.22;7397922;19;20026;-51
2024/01/29 01:07:35;;;;;;;11.48;2.05;;;;;;;31.97;31.07;100021.09;7394705;19;20014;-51
2024/01/29 01:10:03;;;;;;;7.53;1.83;;;;;;;32.41;30.92;100018.16;7393124;19;20095;-51
2024/01/29 01:12:29;;;;;;;8.95;2.50;;;;;;;32.95;30.41;100014.28;7392570;19;20025;-51
2024/01/29 01:14:55;;;;;;;11.48;1.80;;;;;;;32.84;30.42;100013.66;7395749;19;20035;-51
2024/01/29 01:17:21;;;;;;;1.45;1.33;;;;;;;33.23;30.12;100025.41;7397804;19;20010;-51
2024/01/29 01:19:48;;;;;;;16.95;2.97;;;;;;;33.46;29.89;100024.63;7393748;19;20015;-51
2024/01/29 01:22:14;;;;;;;9.45;2.97;;;;;;;33.22;30.08;100017.41;7394551;19;20015;-51
2024/01/29 01:24:40;;;;;;;9.02;3.13;;;;;;;33.24;30.09;100014.63;7393560;19;20422;-51
2024/01/29 01:27:07;;;;;;;10.27;1.92;;;;;;;33.44;29.94;100004.28;7392919;19;20014;-51
2024/01/29 01:29:33;;;;;;;12.13;2.40;;;;;;;33.67;29.43;100015.00;7396067;19;20368;-51
2024/01/29 01:31:59;;;;;;;5.05;2.95;;;;;;;33.51;29.78;100018.44;7393889;19;20039;-51
2024/01/29 01:34:25;;;;;;;9.15;2.25;;;;;;;33.28;30.01;100032.19;7391949;19;20021;-51
2024/01/29 01:36:51;;;;;;;11.48;3.80;;;;;;;33.39;30.14;100034.28;7394521;19;20098;-51
2024/01/29 01:39:17;;;;;;;4.82;2.20;;;;;;;33.42;29.84;100035.91;7396101;19;20010;-51
2024/01/29 01:41:50;;;;;;;24.45;3.00;;;;;;;33.34;30.06;100035.44;7394007;19;20022;-51
2024/01/29 01:44:16;;;;;;;13.82;3.30;;;;;;;33.34;30.07;100046.97;7392305;19;20029;-51
2024/01/29 01:46:42;;;;;;;4.85;3.15;;;;;;;34.01;29.86;100037.97;7393030;19;20340;-51
2024/01/29 01:49:09;;;;;;;10.20;1.75;;;;;;;33.82;29.53;100032.53;7394974;19;20011;-51
2024/01/29 01:51:35;;;;;;;5.50;4.07;;;;;;;33.68;29.89;100039.63;7391601;19;20433;-51
2024/01/29 01:54:02;;;;;;;9.73;1.90;;;;;;;34.40;29.32;100037.22;7392950;19;20021;-51
2024/01/29 01:56:29;;;;;;;6.03;1.73;;;;;;;34.38;29.22;100034.22;7392981;19;20483;-51
2024/01/29 01:58:59;;;;;;;6.60;1.75;;;;;;;33.98;29.60;100033.41;7395074;19;20351;-51
2024/01/29 02:01:27;;;;;;;9.38;3.13;;;;;;;34.44;29.16;100025.88;7391269;19;20010;-50
2024/01/29 02:03:53;;;;;;;3.60;1.88;;;;;;;34.71;28.96;100014.34;7392156;19;20066;-49
2024/01/29 02:06:19;;;;;;;3.65;1.63;;;;;;;34.33;29.60;100039.00;7392558;19;20002;-49
2024/01/29 02:08:45;;;;;;;8.77;2.40;;;;;;;34.14;29.29;100034.38;7393365;19;20053;-50
2024/01/29 02:11:11;;;;;;;8.80;3.75;;;;;;;34.08;29.74;100047.75;7391786;19;20011;-50
2024/01/29 02:13:37;;;;;;;15.57;2.35;;;;;;;34.11;29.53;100032.03;7392227;19;20021;-50
2024/01/29 02:16:04;;;;;;;6.93;2.45;;;;;;;34.17;29.25;100041.78;7396471;19;20347;-50
2024/01/29 02:18:30;;;;;;;6.40;2.53;;;;;;;34.19;29.32;100044.03;7393389;19;20007;-50
2024/01/29 02:20:56;;;;;;;3.00;1.27;;;;;;;34.74;28.94;100042.03;7391856;19;20010;-50
2024/01/29 02:23:29;;;;;;;8.18;2.70;;;;;;;33.52;29.61;100045.22;7392391;19;20006;-50
2024/01/29 02:25:55;;;;;;;9.77;2.65;;;;;;;34.17;29.03;100044.66;7387505;19;20036;-87
2024/01/29 02:28:23;;;;;;;4.85;1.52;;;;;;;33.24;30.14;100060.81;7389245;19;20044;-87
2024/01/29 02:30:49;;;;;;;6.82;1.95;;;;;;;33.89;29.53;100048.81;7386673;19;20018;-88
2024/01/29 02:33:15;;;;;;;3.83;2.10;;;;;;;34.17;29.35;100059.13;7390234;19;20026;-87
2024/01/29 02:35:45;;;;;;;5.18;2.00;;;;;;;34.29;29.18;100068.47;7388083;19;20023;-87
2024/01/29 02:38:11;;;;;;;3.88;2.10;;;;;;;34.80;28.95;100069.16;7391985;19;20359;-87
2024/01/29 02:40:37;;;;;;;7.30;2.15;;;;;;;35.00;28.64;100076.03;7389712;19;20371;-88
2024/01/29 02:43:04;;;;;;;3.58;2.00;;;;;;;34.64;28.98;100074.03;7390190;19;20032;-88
2024/01/29 02:45:30;;;;;;;13.63;1.98;;;;;;;33.83;29.79;100080.25;7388505;19;20389;-88
2024/01/29 02:47:56;;;;;;;12.82;2.85;;;;;;;34.68;28.96;100073.50;7397167;19;20010;-88
2024/01/29 02:50:22;;;;;;;5.50;1.90;;;;;;;34.98;29.03;100072.25;7393210;19;20476;-88
2024/01/29 02:52:49;;;;;;;8.50;2.35;;;;;;;34.98;28.70;100063.56;7395595;19;20077;-88
2024/01/29 02:55:15;;;;;;;4.72;1.83;;;;;;;35.09;28.54;100054.03;7395603;19;20017;-86
2024/01/29 02:57:41;;;;;;;8.10;2.60;;;;;;;35.14;28.51;100060.78;7395666;19;20018;-87
2024/01/29 03:00:07;;;;;;;6.72;1.80;;;;;;;35.14;28.53;100073.13;7395711;19;20035;-87
2024/01/29 03:02:33;;;;;;;4.78;1.65;;;;;;;35.27;28.45;100081.06;7396349;19;20022;-87
2024/01/29 03:05:00;;;;;;;5.65;1.90;;;;;;;35.62;28.21;100081.47;7394301;19;20116;-87
2024/01/29 03:07:26;;;;;;;7.05;3.70;;;;;;;35.97;27.99;100086.09;7394979;19;20018;-87
2024/01/29 03:09:52;;;;;;;6.53;3.28;;;;;;;35.99;27.62;100094.91;7399337;19;20510;-88
2024/01/29 03:12:18;;;;;;;7.50;2.63;;;;;;;35.76;28.07;100102.47;7395929;19;20022;-88
2024/01/29 03:14:44;;;;;;;4.90;1.80;;;;;;;35.67;27.94;100094.03;7396251;19;20010;-87
2024/01/29 03:17:11;;;;;;;8.27;3.35;;;;;;;35.80;27.97;100090.34;7394283;19;20406;-88
2024/01/29 03:19:37;;;;;;;4.03;2.17;;;;;;;35.73;28.29;100092.19;7397430;19;20018;-87
2024/01/29 03:22:03;;;;;;;14.40;3.13;;;;;;;35.84;27.81;100083.97;7400455;19;20015;-88
2024/01/29 03:24:30;;;;;;;13.65;3.05;;;;;;;36.01;27.72;100089.19;7392618;19;20516;-88
2024/01/29 03:26:56;;;;;;;12.00;1.83;;;;;;;35.92;27.92;100069.88;7395933;19;20400;-87
2024/01/29 03:29:22;;;;;;;6.68;1.80;;;;;;;35.73;27.69;100074.78;7394615;19;20014;-87
2024/01/29 03:31:48;;;;;;;3.50;2.05;;;;;;;35.99;27.47;100071.69;7393419;19;20006;-88
2024/01/29 03:34:14;;;;;;;2.08;0.77;;;;;;;36.28;27.20;100063.72;7397812;19;20021;-88
2024/01/29 03:36:43;;;;;;;2.13;1.75;;;;;;;35.98;27.28;100067.28;7393952;19;20014;-88
2024/01/29 03:39:09;;;;;;;4.60;2.55;;;;;;;37.46;26.24;100064.03;7395589;19;20014;-87
2024/01/29 03:41:35;;;;;;;11.50;3.00;;;;;;;36.56;26.77;100070.13;7392777;19;20014;-88
2024/01/29 03:44:01;;;;;;;12.30;2.70;;;;;;;36.90;26.51;100089.19;7392958;19;20014;-88
2024/01/29 03:46:27;;;;;;;8.18;2.35;;;;;;;37.46;26.09;100081.47;7395508;19;20026;-88
2024/01/29 03:48:54;;;;;;;7.25;2.10;;;;;;;38.67;25.54;100075.56;7395212;19;20527;-87
2024/01/29 03:51:20;;;;;;;11.57;3.13;;;;;;;39.06;24.93;100061.03;7395510;19;20035;-88
2024/01/29 03:53:46;;;;;;;6.43;1.77;;;;;;;38.77;25.28;100061.41;7396629;19;20504;-88
2024/01/29 03:56:12;;;;;;;11.23;1.70;;;;;;;38.60;24.95;100071.69;7390743;19;20014;-87
2024/01/29 03:58:38;;;;;;;2.05;1.70;;;;;;;37.69;25.77;100078.84;7389374;19;20073;-88
2024/01/29 04:01:04;;;;;;;12.73;1.75;;;;;;;37.70;25.45;100076.72;7391557;19;20043;-88
2024/01/29 04:03:30;;;;;;;18.02;2.50;;;;;;;37.63;25.42;100066.22;7393020;19;20021;-87
2024/01/29 04:05:56;;;;;;;8.48;2.83;;;;;;;37.36;25.46;100073.06;7390520;19;20026;-88
2024/01/29 04:08:22;;;;;;;8.48;2.03;;;;;;;37.97;25.40;100070.59;7397080;19;20022;-88
2024/01/29 04:10:49;;;;;;;9.43;2.83;;;;;;;37.97;25.37;100073.50;7391629;19;20342;-88
2024/01/29 04:13:15;;;;;;;4.60;2.03;;;;;;;38.96;24.50;100062.84;7393079;19;20007;-88
2024/01/29 04:15:41;;;;;;;12.98;1.75;;;;;;;37.10;25.97;100069.00;7394435;19;20026;-88
2024/01/29 04:18:07;;;;;;;13.32;2.78;;;;;;;36.68;26.16;100064.91;7394157;19;20029;-88
2024/01/29 04:20:33;;;;;;;4.45;2.67;;;;;;;36.70;26.09;100073.69;7397249;19;20031;-88
2024/01/29 04:23:00;;;;;;;12.55;2.28;;;;;;;36.56;26.04;100070.13;7394578;19;20014;-88
2024/01/29 04:25:26;;;;;;;8.13;3.05;;;;;;;35.89;26.58;100068.28;7391451;19;20509;-88
2024/01/29 04:27:52;;;;;;;4.00;2.08;;;;;;;36.37;26.34;100067.75;7395267;19;20077;-87
2024/01/29 04:30:18;;;;;;;6.50;1.88;;;;;;;36.74;26.16;100062.25;7394759;19;20041;-88
2024/01/29 04:32:44;;;;;;;7.38;2.08;;;;;;;36.79;25.81;100049.44;7393750;19;20094;-88
2024/01/29 04:35:10;;;;;;;5.07;3.72;;;;;;;36.81;25.98;100049.53;7391541;19;20010;-88
2024/01/29 04:37:37;;;;;;;2.03;1.00;;;;;;;36.80;25.69;100053.81;7391380;19;20052;-88
2024/01/29 04:40:03;;;;;;;5.57;3.13;;;;;;;36.50;25.98;100052.44;7392911;19;20509;-88
2024/01/29 04:42:29;;;;;;;5.57;2.88;;;;;;;36.86;26.14;100059.91;7394877;19;20020;-88
2024/01/29 04:44:56;;;;;;;2.08;1.30;;;;;;;36.41;26.16;100056.31;7390780;19;20018;-88
2024/01/29 04:47:22;;;;;;;9.88;2.03;;;;;;;37.43;25.76;100053.72;7391595;19;20112;-89
2024/01/29 04:49:48;;;;;;;3.13;2.13;;;;;;;37.63;25.60;100061.16;7395240;19;20022;-89
2024/01/29 04:52:14;;;;;;;2.42;1.15;;;;;;;37.37;25.60;100062.19;7392266;19;20031;-89
2024/01/29 04:54:40;;;;;;;14.95;3.35;;;;;;;36.18;26.18;100065.38;7394557;19;20047;-90
2024/01/29 04:57:06;;;;;;;5.28;0.88;;;;;;;36.04;26.29;100079.22;7393971;19;20021;-90
2024/01/29 04:59:32;;;;;;;4.05;1.80;;;;;;;36.41;26.41;100074.50;7392491;19;20020;-90
2024/01/29 05:01:58;;;;;;;3.95;1.65;;;;;;;36.68;25.84;100081.56;7392698;19;20022;-91
2024/01/29 05:04:24;;;;;;;4.70;1.48;;;;;;;36.55;26.35;100068.63;7393764;19;20464;-90
2024/01/29 05:06:50;;;;;;;3.03;2.28;;;;;;;36.18;26.34;100079.88;7393166;19;20113;-90
2024/01/29 05:09:17;;;;;;;8.20;3.45;;;;;;;35.69;26.91;100082.53;7390644;19;20010;-90
2024/01/29 05:11:43;;;;;;;2.28;1.73;;;;;;;35.65;26.72;100080.16;7392335;19;20026;-90
2024/01/29 05:14:09;;;;;;;4.30;1.88;;;;;;;35.61;26.98;100091.53;7391780;19;20026;-89
2024/01/29 05:16:35;;;;;;;2.10;1.50;;;;;;;35.69;26.77;100102.81;7394471;19;20043;-90
2024/01/29 05:19:01;;;;;;;14.75;3.42;;;;;;;35.41;27.13;100104.97;7393667;19;20021;-90
2024/01/29 05:21:27;;;;;;;10.45;2.78;;;;;;;35.58;26.95;100100.78;7391475;19;20019;-89
2024/01/29 05:23:54;;;;;;;6.15;1.77;;;;;;;35.68;27.10;100089.72;7390802;19;20463;-89
2024/01/29 05:26:20;;;;;;;10.02;3.85;;;;;;;35.69;27.05;100103.53;7389625;19;20017;-88
2024/01/29 05:28:46;;;;;;;7.28;2.35;;;;;;;36.80;25.85;100103.19;7390165;19;20116;-89
2024/01/29 05:31:13;;;;;;;8.93;1.65;;;;;;;37.21;26.05;100092.00;7389993;19;20022;-89
2024/01/29 05:33:39;;;;;;;3.72;1.02;;;;;;;36.91;26.08;100090.66;7391789;19;20036;-90
2024/01/29 05:36:06;;;;;;;7.50;3.25;;;;;;;36.12;26.37;100086.16;7389155;19;20028;-89
2024/01/29 05:38:33;;;;;;;10.68;1.58;;;;;;;35.18;27.25;100090.72;7393649;19;20042;-89
2024/01/29 05:40:59;;;;;;;7.93;2.42;;;;;;;35.63;26.91;100085.84;7393141;19;20022;-90
2024/01/29 05:43:25;;;;;;;5.70;1.52;;;;;;;36.06;26.90;100088.00;7390667;19;20494;-90
2024/01/29 05:45:51;;;;;;;5.35;1.50;;;;;;;35.68;26.77;100081.75;7389780;19;20029;-89
2024/01/29 05:48:17;;;;;;;3.53;2.15;;;;;;;35.09;27.54;100077.19;7392503;19;20031;-91
2024/01/29 05:50:43;;;;;;;5.15;1.33;;;;;;;34.57;27.90;100085.91;7389273;19;20469;-90
2024/01/29 05:53:10;;;;;;;4.85;1.75;;;;;;;34.57;27.92;100085.91;7390470;19;20390;-90
2024/01/29 05:55:36;;;;;;;11.20;2.67;;;;;;;35.23;27.52;100094.56;7390773;19;20010;-90
2024/01/29 05:58:02;;;;;;;9.60;2.45;;;;;;;34.78;27.93;100097.22;7391550;19;20015;-90
2024/01/29 06:00:29;;;;;;;6.43;1.38;;;;;;;34.11;28.54;100104.28;7389587;19;20051;-90
2024/01/29 06:02:55;;;;;;;5.57;1.67;;;;;;;34.35;28.60;100094.84;7391893;19;20033;-90
2024/01/29 06:05:21;;;;;;;4.97;1.77;;;;;;;34.29;28.43;100096.63;7390485;19;20019;-91
2024/01/29 06:07:47;;;;;;;4.03;2.08;;;;;;;34.20;28.48;100083.88;7391155;19;20014;-91
2024/01/29 06:10:14;;;;;;;4.72;1.30;;;;;;;34.30;28.58;100080.81;7388358;19;20019;-91
2024/01/29 06:12:40;;;;;;;2.78;1.13;;;;;;;34.21;28.19;100084.63;7390499;19;20022;-91
2024/01/29 06:15:07;;;;;;;10.60;2.67;;;;;;;34.08;28.44;100077.41;7389608;19;20428;-91
2024/01/29 06:17:33;;;;;;;5.90;1.88;;;;;;;34.11;28.53;100096.34;7388954;19;20457;-91
2024/01/29 06:19:59;;;;;;;7.55;2.35;;;;;;;34.08;28.37;100088.22;7394018;19;20029;-90
2024/01/29 06:22:25;;;;;;;8.30;2.40;;;;;;;34.18;28.71;100088.78;7397315;19;20027;-91
2024/01/29 06:24:51;;;;;;;8.18;3.03;;;;;;;34.14;28.80;100086.41;7397270;19;20019;-91
2024/01/29 06:27:17;;;;;;;10.13;2.97;;;;;;;34.81;28.41;100082.22;7399194;19;20023;-90
2024/01/29 06:29:44;;;;;;;4.55;1.95;;;;;;;35.29;27.92;100084.06;7396568;19;20434;-89
2024/01/29 06:32:10;;;;;;;7.22;1.85;;;;;;;35.28;27.83;100082.53;7398732;19;20014;-90
2024/01/29 06:34:36;;;;;;;4.40;1.77;;;;;;;35.06;28.13;100102.41;7394470;19;20011;-91
2024/01/29 06:37:02;;;;;;;1.35;0.93;;;;;;;35.10;27.91;100101.88;7398070;19;20018;-89
2024/01/29 06:39:28;;;;;;;3.65;2.38;;;;;;;35.12;28.04;100104.13;7396836;19;20019;-90
2024/01/29 06:41:54;;;;;;;6.63;1.95;;;;;;;35.25;27.99;100097.56;7396646;19;20034;-91
2024/01/29 06:44:20;;;;;;;9.02;2.42;;;;;;;35.25;28.02;100095.44;7394163;19;20396;-91
2024/01/29 06:46:46;;;;;;;5.43;2.50;;;;;;;35.22;28.32;100088.03;7396104;19;20022;-93
2024/01/29 06:49:27;;;;;;;10.50;3.00;;;;;;;35.15;28.12;100083.31;7398459;19;20036;-92
2024/01/29 06:51:54;;;;;;;5.43;2.50;;;;;;;35.29;27.88;100089.84;7396526;19;20018;-94
2024/01/29 06:54:20;;;;;;;27.52;2.65;;;;;;;35.46;28.07;100086.41;7395327;19;20018;-93
2024/01/29 06:56:46;;;;;;;6.03;2.45;;;;;;;35.82;27.73;100086.78;7396140;19;20018;-93
2024/01/29 06:59:13;;;;;;;11.35;3.25;;;;;;;36.07;27.52;100081.56;7397801;19;20469;-94
2024/01/29 07:01:40;;;;;;;5.97;2.42;;;;;;;35.35;27.66;100075.69;7398492;19;20018;-94
2024/01/29 07:04:06;;;;;;;3.63;1.63;;;;;;;35.67;27.81;100065.75;7395878;19;20022;-95
2024/01/29 07:06:33;;;;;;;4.43;2.13;;;;;;;34.96;28.46;100057.66;7395809;19;20013;-94
2024/01/29 07:08:59;;;;;;;6.00;1.63;;;;;;;35.63;27.75;100053.97;7396560;19;20011;-94
2024/01/29 07:11:25;;;;;;;5.65;1.80;;;;;;;35.67;27.74;100059.97;7398057;19;20315;-93
2024/01/29 07:13:51;;;;;;;4.63;2.10;;;;;;;36.40;27.36;100051.94;7400653;19;20006;-93
2024/01/29 07:16:17;;;;;;;3.78;1.15;;;;;;;36.66;26.82;100050.28;7393593;19;20014;-93
2024/01/29 07:18:43;;;;;;;7.18;1.80;;;;;;;36.66;26.85;100059.00;7399438;19;20025;-94
2024/01/29 07:21:10;;;;;;;5.10;1.60;;;;;;;36.87;26.74;100052.69;7395928;19;20464;-94
2024/01/29 07:23:36;;;;;;;4.95;1.67;;;;;;;36.48;27.18;100052.34;7399020;19;20025;-94
2024/01/29 07:26:03;;;;;;;2.35;1.33;;;;;;;36.08;27.56;100073.59;7397058;19;20015;-92
2024/01/29 07:28:30;;;;;;;8.68;2.28;;;;;;;37.13;26.60;100074.25;7396270;19;20047;-93
2024/01/29 07:30:56;;;;;;;5.35;1.30;;;;;;;37.43;26.86;100069.03;7392599;19;20015;-92
2024/01/29 07:33:22;;;;;;;3.97;2.05;;;;;;;37.54;26.27;100059.31;7399832;19;20022;-92
2024/01/29 07:35:49;;;;;;;5.57;1.55;;;;;;;37.61;26.32;100071.97;7394226;19;20019;-92
2024/01/29 07:38:15;;;;;;;3.40;1.00;;;;;;;37.37;26.49;100068.00;7394880;19;20022;-92
2024/01/29 07:40:41;;;;;;;6.07;2.15;;;;;;;37.10;26.81;100069.72;7396892;19;20019;-93
2024/01/29 07:43:07;;;;;;;2.97;0.95;;;;;;;37.01;26.78;100067.91;7396375;19;20021;-93
2024/01/29 07:45:34;;;;;;;4.95;1.60;;;;;;;37.19;26.96;100065.78;7397550;19;20023;-93
2024/01/29 07:48:00;;;;;;;3.08;1.48;;;;;;;37.54;26.36;100064.38;7395341;19;20019;-92
2024/01/29 07:50:26;;;;;;;6.22;1.60;;;;;;;37.69;26.33;100072.28;7393267;19;20030;-93
2024/01/29 07:52:52;;;;;;;5.35;1.63;;;;;;;37.83;26.36;100079.50;7394421;19;20042;-94
2024/01/29 07:55:20;;;;;;;1.88;1.05;;;;;;;37.87;26.07;100085.47;7398290;19;20509;-94
2024/01/29 07:57:46;;;;;;;2.42;1.00;;;;;;;37.89;25.87;100081.91;7396286;19;20006;-94
2024/01/29 08:00:13;;;;;;;3.20;1.70;;;;;;;37.33;26.44;100094.72;7394738;19;20448;-93
2024/01/29 08:02:39;;;;;;;1.75;1.38;;;;;;;36.66;26.87;100093.84;7393940;19;20043;-92
2024/01/29 08:05:05;;;;;;;4.18;1.83;;;;;;;36.73;26.86;100095.63;7397318;19;20045;-94
2024/01/29 08:07:32;;;;;;;12.25;2.65;;;;;;;36.80;26.76;100100.28;7394421;19;20022;-94
2024/01/29 08:10:01;;;;;;;7.93;1.65;;;;;;;36.92;27.05;100106.69;7394395;19;20032;-95
2024/01/29 08:12:27;;;;;;;2.38;1.38;;;;;;;36.83;27.18;100109.84;7396196;19;20089;-94
2024/01/29 08:14:54;;;;;;;7.68;1.63;;;;;;;36.93;26.95;100119.78;7396321;19;20022;-93
2024/01/29 08:17:20;;;;;;;5.40;1.85;;;;;;;36.98;27.07;100121.47;7398983;19;20014;-94
2024/01/29 08:19:46;;;;;;;4.43;1.70;;;;;;;36.79;26.87;100130.72;7398415;19;20498;-94
2024/01/29 08:22:12;;;;;;;23.45;1.70;;;;;;;36.91;27.14;100133.47;7392118;19;20014;-94
2024/01/29 08:24:39;;;;;;;3.83;1.17;;;;;;;36.94;26.84;100135.06;7390716;19;20080;-93
2024/01/29 08:27:05;;;;;;;16.10;3.70;;;;;;;37.14;26.68;100133.81;7389523;19;20042;-94
2024/01/29 08:29:31;;;;;;;4.05;1.48;;;;;;;37.11;27.03;100143.88;7396436;19;20025;-94
2024/01/29 08:31:58;;;;;;;3.15;1.02;;;;;;;37.04;27.09;100136.28;7396340;19;20034;-94
2024/01/29 08:34:25;;;;;;;5.50;1.92;;;;;;;36.91;27.20;100145.06;7394452;19;20014;-94
2024/01/29 08:36:51;;;;;;;6.78;2.03;;;;;;;36.81;27.19;100136.63;7394677;19;20023;-94
2024/01/29 08:39:17;;;;;;;4.72;0.65;;;;;;;36.73;27.27;100130.47;7395520;19;20365;-94
2024/01/29 08:41:43;;;;;;;4.97;1.10;;;;;;;36.41;27.82;100129.63;7401993;19;20018;-94
2024/01/29 08:44:10;;;;;;;16.10;1.88;;;;;;;35.83;28.13;100120.91;7395913;19;20026;-94
2024/01/29 08:46:36;;;;;;;3.08;1.25;;;;;;;36.24;28.06;100121.53;7395634;19;20133;-94
2024/01/29 08:49:03;;;;;;;2.70;1.23;;;;;;;36.58;27.54;100116.66;7397119;19;20597;-94
2024/01/29 08:51:29;;;;;;;5.97;1.60;;;;;;;36.67;27.41;100120.72;7393489;19;20018;-93
2024/01/29 08:53:56;;;;;;;6.65;2.67;;;;;;;36.66;27.36;100114.16;7400597;19;20468;-94
2024/01/29 08:56:22;;;;;;;6.00;2.05;;;;;;;36.59;27.65;100109.47;7395808;19;20019;-94
2024/01/29 08:58:48;;;;;;;1.55;0.88;;;;;;;36.74;27.36;100113.75;7394148;19;20006;-93
2024/01/29 09:01:14;;;;;;;3.75;1.40;;;;;;;37.30;27.05;100115.63;7395186;19;20015;-95
2024/01/29 09:03:40;;;;;;;12.57;1.73;;;;;;;36.84;27.69;100117.88;7397703;19;20103;-93
2024/01/29 09:06:06;;;;;;;7.40;1.27;;;;;;;36.97;27.20;100122.16;7393425;19;20023;-94
2024/01/29 09:08:32;;;;;;;5.97;2.05;;;;;;;37.25;27.13;100126.34;7394076;19;20015;-93
2024/01/29 09:10:59;;;;;;;6.15;2.65;;;;;;;37.71;26.99;100136.34;7391567;19;20027;-94
2024/01/29 09:13:25;;;;;;;4.32;1.63;;;;;;;36.99;27.42;100128.03;7397077;19;20042;-94
2024/01/29 09:15:51;;;;;;;3.08;1.48;;;;;;;36.91;27.31;100128.41;7397227;19;20031;-93
2024/01/29 09:18:17;;;;;;;3.65;1.83;;;;;;;36.83;27.51;100133.81;7394844;19;20014;-93
2024/01/29 09:20:43;;;;;;;8.60;1.63;;;;;;;36.94;27.63;100150.34;7393443;19;20015;-92
2024/01/29 09:36:50;;;;;;;5.43;2.85;;;;;;;37.45;27.61;100132.31;7252710;19;3372782;-52
2024/01/29 09:39:18;;;;;;;10.73;4.18;;;;;;;37.25;27.63;100138.69;7430610;19;20015;-50
2024/01/29 09:41:46;;;;;;;3.13;2.38;;;;;;;37.53;27.56;100133.41;7428874;19;20015;-50
2024/01/29 09:44:12;;;;;;;6.55;3.33;;;;;;;37.58;27.72;100134.31;7428871;19;20017;-50
2024/01/29 09:46:43;;;;;;;9.27;3.72;;;;;;;37.66;27.78;100123.06;7433199;19;20018;-50
2024/01/29 09:49:10;;;;;;;5.82;2.05;;;;;;;37.68;27.44;100126.06;7427575;19;20470;-50
2024/01/29 09:51:37;;;;;;;10.85;3.58;;;;;;;37.79;27.54;100142.53;7428573;19;20021;-50
2024/01/29 09:54:05;;;;;;;11.18;2.88;;;;;;;37.44;27.69;100142.44;7429011;19;20014;-51
2024/01/29 09:56:31;;;;;;;7.10;2.88;;;;;;;37.49;27.52;100141.94;7430108;19;20350;-50
2024/01/29 09:58:57;;;;;;;15.50;3.70;;;;;;;37.47;27.77;100136.03;7427754;19;20003;-50
2024/01/29 10:01:23;;;;;;;8.25;3.25;;;;;;;36.46;28.26;100139.31;7427629;19;20086;-50
2024/01/29 10:03:49;;;;;;;4.80;2.85;;;;;;;36.71;28.53;100150.66;7428501;19;20469;-50
2024/01/29 10:06:16;;;;;;;11.18;4.45;;;;;;;36.84;28.14;100152.72;7427323;19;20014;-50
2024/01/29 10:08:42;;;;;;;10.73;2.65;;;;;;;36.34;28.54;100156.84;7425690;19;20018;-50
2024/01/29 10:11:08;;;;;;;8.93;4.80;;;;;;;36.11;29.05;100150.59;7426934;19;20013;-50
2024/01/29 10:13:35;;;;;;;4.55;2.22;;;;;;;36.49;28.66;100135.09;7428041;19;20010;-50
2024/01/29 10:16:01;;;;;;;6.82;1.55;;;;;;;36.00;29.35;100142.78;7429276;19;20014;-50
2024/01/29 10:18:27;;;;;;;5.50;2.08;;;;;;;35.39;29.81;100139.63;7427905;19;20014;-52
2024/01/29 10:21:00;;;;;;;9.82;3.95;;;;;;;35.32;29.83;100140.72;7427009;19;20069;-50
2024/01/29 10:23:27;;;;;;;8.82;3.25;;;;;;;35.21;29.99;100135.78;7427786;19;20029;-50
2024/01/29 10:26:00;;;;;;;5.78;2.38;;;;;;;35.63;29.64;100129.31;7426616;19;20010;-50
2024/01/29 10:28:27;;;;;;;12.27;2.83;;;;;;;35.56;29.43;100118.06;7425912;19;20031;-50
2024/01/29 10:30:54;;;;;;;10.23;1.63;;;;;;;35.61;29.64;100108.94;7426519;19;20084;-50
2024/01/29 10:33:21;;;;;;;4.38;2.28;;;;;;;34.99;30.55;100108.50;7426603;19;20010;-50
2024/01/29 10:35:49;;;;;;;10.75;2.35;;;;;;;34.75;30.47;100119.50;7420941;19;20007;-50
2024/01/29 10:38:21;;;;;;;2.42;1.38;;;;;;;34.78;30.65;100118.22;7397844;19;20014;-50
2024/01/29 10:40:48;;;;;;;7.97;1.83;;;;;;;34.09;31.27;100125.16;7397574;19;20017;-50
2024/01/29 10:43:21;;;;;;;10.43;2.95;;;;;;;34.78;30.81;100129.06;7397693;19;20036;-50
2024/01/29 10:45:51;;;;;;;12.82;2.90;;;;;;;33.82;31.84;100136.56;7397768;19;20023;-50
2024/01/29 10:48:22;;;;;;;6.63;3.25;;;;;;;32.38;33.13;100143.38;7398324;19;20114;-49
2024/01/29 10:50:50;;;;;;;6.88;0.88;;;;;;;30.79;35.05;100143.97;7398122;19;20027;-50
2024/01/29 10:53:17;;;;;;;11.60;2.75;;;;;;;29.67;36.54;100142.81;7397431;19;20441;-51
2024/01/29 10:55:45;;;;;;;5.53;2.25;;;;;;;30.13;36.58;100153.44;7398762;19;20017;-50
2024/01/29 10:58:15;;;;;;;23.23;5.65;;;;;;;28.76;38.77;100160.06;7395950;19;20010;-52
2024/01/29 11:00:42;;;;;;;10.15;3.25;;;;;;;28.34;39.40;100163.84;7395661;19;20029;-52
2024/01/29 11:03:11;;;;;;;17.45;4.03;;;;;;;28.17;40.54;100174.56;7397173;19;20340;-50
2024/01/29 11:05:39;;;;;;;7.28;2.33;;;;;;;28.09;40.68;100163.19;7396313;19;20011;-50
2024/01/29 11:08:12;;;;;;;6.90;2.00;;;;;;;26.63;42.95;100160.63;7397305;19;20025;-50
2024/01/29 11:10:38;;;;;;;7.90;3.20;;;;;;;27.39;43.18;100154.38;7397784;19;20021;-51
2024/01/29 11:13:08;;;;;;;5.15;2.03;;;;;;;27.56;42.73;100142.97;7397339;19;20316;-51
2024/01/29 11:15:34;;;;;;;8.43;2.75;;;;;;;27.63;42.72;100127.81;7397666;19;20025;-51
2024/01/29 11:18:00;;;;;;;16.75;3.92;;;;;;;27.42;43.51;100116.00;7397104;19;20015;-51
2024/01/29 11:20:31;;;;;;;5.88;3.45;;;;;;;27.52;44.26;100114.00;7397567;19;20010;-52
2024/01/29 11:22:57;;;;;;;9.98;3.25;;;;;;;26.85;45.34;100114.03;7401292;19;20037;-52
2024/01/29 11:25:27;;;;;;;7.57;2.50;;;;;;;26.91;45.97;100093.78;7394762;19;20017;-51
2024/01/29 11:27:55;;;;;;;6.95;3.08;;;;;;;26.97;47.31;100089.34;7395643;19;20038;-51
2024/01/29 11:30:23;;;;;;;6.93;2.03;;;;;;;27.13;46.54;100097.78;7395230;19;20040;-52
2024/01/29 11:32:51;;;;;;;17.20;2.40;;;;;;;26.51;48.57;100102.41;7396648;19;20014;-52
2024/01/29 11:35:19;;;;;;;4.60;2.55;;;;;;;28.12;46.45;100093.28;7396333;19;20003;-53